Friday, September 21, 2018, 4:13 AM EDT
Back to Local

KHVN, Tweed-new Haven Airport

Location: East Haven, CT, United States Lat: 41.267
Local Time: 4:13 AM EDT ( 8:13 GMT) Lon: -72.883
Time Zone: US/Eastern Elev: 13 ft

Show me the last for .
Show Decoded

2018-09-21 03:53 METAR KHVN 210753Z AUTO 16008KT 10SM BKN035 OVC055 19/16 A3025 RMK AO2 SLP244
                 T01940156 =
2018-09-21 03:39 METAR KHVN 210739Z AUTO 17010KT 10SM FEW023 OVC034 19/16 A3026 RMK AO2 T01940156
                 =
2018-09-21 02:53 METAR KHVN 210653Z AUTO 16010KT 10SM FEW018 BKN023 OVC030 19/16 A3026 RMK AO2
                 SLP245 T01940161 =
2018-09-21 01:53 METAR KHVN 210553Z AUTO 15007KT 10SM SCT020 BKN027 OVC050 20/16 A3026 RMK AO2
                 SLP248 60000 T02000161 10211 20194 58003 =
2018-09-21 01:26 METAR KHVN 210526Z AUTO 14008KT 10SM SCT018 BKN024 OVC050 19/16 A3027 RMK AO2
                 T01940161 =
2018-09-21 00:53 METAR KHVN 210453Z AUTO 13005KT 10SM FEW018 BKN031 OVC045 20/16 A3027 RMK AO2
                 SLP250 T02000156 402330167 =
2018-09-20 23:53 METAR KHVN 210353Z AUTO 14009KT 10SM SCT020 BKN031 OVC055 19/16 A3027 RMK AO2
                 SLP251 T01940156 =
2018-09-20 23:16 METAR KHVN 210316Z AUTO 15008KT 10SM FEW018 BKN023 OVC055 19/16 A3027 RMK AO2
                 T01940161 =
2018-09-20 22:53 METAR KHVN 210253Z AUTO 14007KT 10SM FEW017 BKN042 OVC049 19/16 A3027 RMK AO2
                 RAE02 SLP251 P0000 60000 T01940161 51012 =
2018-09-20 22:35 METAR KHVN 210235Z AUTO 14008KT 10SM FEW018 SCT023 OVC049 19/16 A3027 RMK AO2
                 RAE02 P0000 T01940161 =
2018-09-20 21:53 METAR KHVN 210153Z 15008KT 8SM -RA BKN019 OVC024 19/16 A3027 RMK AO2 RAE0058B51
                 SLP250 P0000 T01940161 =
2018-09-20 20:53 METAR KHVN 210053Z 15008KT 10SM -RA OVC023 20/17 A3026 RMK AO2 RAB49 SLP247
                 P0000 T02000167 =
2018-09-20 19:59 METAR KHVN 202359Z 11004KT 10SM BKN029 BKN035 21/16 A3024 RMK AO2 T02110156 =
2018-09-20 19:53 METAR KHVN 202353Z 12004KT 10SM BKN031 BKN038 21/16 A3024 RMK AO2 SLP239
                 T02060156 10222 20206 51006 =
2018-09-20 18:53 METAR KHVN 202253Z 10003KT 10SM BKN050 21/14 A3024 RMK AO2 SLP239 T02110144 =
2018-09-20 17:53 METAR KHVN 202153Z 17003KT 10SM SCT040 BKN050 21/15 A3023 RMK AO2 SLP236
                 T02110150 =
2018-09-20 16:53 METAR KHVN 202053Z 17007KT 10SM SCT040 BKN050 22/16 A3022 RMK AO2 SLP233
                 T02170156 55004 =
2018-09-20 15:53 METAR KHVN 201953Z 18007KT 10SM SCT040 BKN050 22/15 A3022 RMK AO2 SLP231
                 T02170150 =
2018-09-20 14:53 METAR KHVN 201853Z 17007KT 10SM SCT039 BKN050 22/15 A3022 RMK AO2 SLP232
                 T02220150 =
2018-09-20 13:53 METAR KHVN 201753Z 18007KT 10SM OVC032 22/16 A3023 RMK AO2 SLP237 T02170156
                 10233 20172 58005 =
2018-09-20 12:53 METAR KHVN 201653Z 36005KT 10SM SCT025 BKN055 22/15 A3024 RMK AO2 SLP239
                 T02220150 =
2018-09-20 11:53 METAR KHVN 201553Z 01007KT 10SM BKN055 21/14 A3025 RMK AO2 SLP243 T02110139 =
2018-09-20 10:53 METAR KHVN 201453Z 01006KT 10SM OVC055 20/13 A3025 RMK AO2 SLP242 T02000133
                 53018 =
2018-09-20 09:53 METAR KHVN 201353Z 36008KT 10SM BKN055 19/13 A3023 RMK AO2 SLP236 T01890133 $ =
2018-09-20 08:53 METAR KHVN 201253Z 01008KT 10SM OVC055 18/13 A3022 RMK AO2 SLP231 T01780133 $ =
2018-09-20 07:53 METAR KHVN 201153Z 01006KT 10SM OVC055 17/13 A3020 RMK AO2 SLP225 T01720133
                 10172 20167 53023 $ =
2018-09-20 06:53 METAR KHVN 201053Z 02004KT 10SM OVC055 17/13 A3017 RMK AO2 SLP215 T01670133 $ =
2018-09-20 05:53 METAR KHVN 200953Z 03004KT 10SM SCT036 BKN043 BKN060 17/13 A3015 RMK AO2 SLP210
                 T01720128 $ =
2018-09-20 04:53 METAR KHVN 200853Z AUTO 03006KT 10SM FEW043 OVC060 17/13 A3013 RMK AO2 SLP202
                 T01720128 51008 $ =

Support USWX by starting your Amazon purchase here.